sensor_id;sensor_type;location;lat;lon;timestamp;pressure;altitude;pressure_sealevel;temperature;humidity
48204;BME280;33994;50.998;5.864;2023-08-07T00:01:28;100914.97;;;12.87;93.20
48204;BME280;33994;50.998;5.864;2023-08-07T00:04:31;100922.81;;;12.88;93.05
48204;BME280;33994;50.998;5.864;2023-08-07T00:07:34;100918.47;;;12.87;93.00
48204;BME280;33994;50.998;5.864;2023-08-07T00:10:39;100919.25;;;12.91;93.02
48204;BME280;33994;50.998;5.864;2023-08-07T00:13:43;100914.84;;;12.93;92.88
48204;BME280;33994;50.998;5.864;2023-08-07T00:16:46;100910.44;;;12.94;92.80
48204;BME280;33994;50.998;5.864;2023-08-07T00:19:50;100915.78;;;12.90;92.65
48204;BME280;33994;50.998;5.864;2023-08-07T00:22:53;100910.59;;;12.87;92.67
48204;BME280;33994;50.998;5.864;2023-08-07T00:25:59;100909.78;;;12.85;92.69
48204;BME280;33994;50.998;5.864;2023-08-07T00:29:03;100908.88;;;12.86;92.82
48204;BME280;33994;50.998;5.864;2023-08-07T00:32:07;100912.25;;;12.92;92.60
48204;BME280;33994;50.998;5.864;2023-08-07T00:35:10;100912.41;;;12.85;92.54
48204;BME280;33994;50.998;5.864;2023-08-07T00:38:14;100920.22;;;12.87;92.42
48204;BME280;33994;50.998;5.864;2023-08-07T00:41:21;100918.50;;;12.86;92.35
48204;BME280;33994;50.998;5.864;2023-08-07T00:44:25;100916.69;;;12.88;92.59
48204;BME280;33994;50.998;5.864;2023-08-07T00:47:29;100914.91;;;12.90;92.51
48204;BME280;33994;50.998;5.864;2023-08-07T00:50:33;100919.31;;;12.89;92.54
48204;BME280;33994;50.998;5.864;2023-08-07T00:53:38;100907.94;;;12.89;92.46
48204;BME280;33994;50.998;5.864;2023-08-07T00:56:45;100916.75;;;12.86;92.56
48204;BME280;33994;50.998;5.864;2023-08-07T00:59:49;100916.75;;;12.86;92.62
48204;BME280;33994;50.998;5.864;2023-08-07T01:02:54;100919.38;;;12.86;92.47
48204;BME280;33994;50.998;5.864;2023-08-07T01:05:58;100918.44;;;12.89;92.37
48204;BME280;33994;50.998;5.864;2023-08-07T01:09:02;100924.56;;;12.89;91.80
48204;BME280;33994;50.998;5.864;2023-08-07T01:12:13;100926.41;;;12.84;91.42
48204;BME280;33994;50.998;5.864;2023-08-07T01:15:23;100929.03;;;12.84;91.34
48204;BME280;33994;50.998;5.864;2023-08-07T01:18:29;100930.78;;;12.85;91.43
48204;BME280;33994;50.998;5.864;2023-08-07T01:21:34;100930.69;;;12.88;91.38
48204;BME280;33994;50.998;5.864;2023-08-07T01:24:41;100935.94;;;12.88;91.11
48204;BME280;33994;50.998;5.864;2023-08-07T01:27:50;100938.50;;;12.92;91.11
48204;BME280;33994;50.998;5.864;2023-08-07T01:30:59;100928.84;;;12.92;91.05
48204;BME280;33994;50.998;5.864;2023-08-07T01:34:07;100936.78;;;12.90;90.82
48204;BME280;33994;50.998;5.864;2023-08-07T01:37:12;100925.38;;;12.92;90.77
48204;BME280;33994;50.998;5.864;2023-08-07T01:40:20;100934.16;;;12.90;90.48
48204;BME280;33994;50.998;5.864;2023-08-07T01:43:26;100932.38;;;12.91;90.35
48204;BME280;33994;50.998;5.864;2023-08-07T01:46:29;100934.09;;;12.92;90.45
48204;BME280;33994;50.998;5.864;2023-08-07T01:49:33;100934.97;;;12.93;90.47
48204;BME280;33994;50.998;5.864;2023-08-07T01:52:37;100938.44;;;12.95;90.06
48204;BME280;33994;50.998;5.864;2023-08-07T01:55:41;100936.72;;;12.94;89.84
48204;BME280;33994;50.998;5.864;2023-08-07T01:58:45;100939.41;;;12.90;90.01
48204;BME280;33994;50.998;5.864;2023-08-07T02:01:50;100935.00;;;12.91;90.08
48204;BME280;33994;50.998;5.864;2023-08-07T02:04:53;100931.47;;;12.92;89.93
48204;BME280;33994;50.998;5.864;2023-08-07T02:07:57;100936.78;;;12.90;90.00
48204;BME280;33994;50.998;5.864;2023-08-07T02:11:05;100942.06;;;12.89;89.91
48204;BME280;33994;50.998;5.864;2023-08-07T02:14:09;100947.34;;;12.87;89.95
48204;BME280;33994;50.998;5.864;2023-08-07T02:17:13;100945.63;;;12.86;90.05
48204;BME280;33994;50.998;5.864;2023-08-07T02:20:20;100956.97;;;12.87;90.03
48204;BME280;33994;50.998;5.864;2023-08-07T02:23:24;100954.34;;;12.87;90.31
48204;BME280;33994;50.998;5.864;2023-08-07T02:26:29;100949.16;;;12.85;90.16
48204;BME280;33994;50.998;5.864;2023-08-07T02:29:32;100954.41;;;12.85;90.22
48204;BME280;33994;50.998;5.864;2023-08-07T02:32:36;100959.66;;;12.85;90.36
48204;BME280;33994;50.998;5.864;2023-08-07T02:35:40;100957.03;;;12.84;90.19
48204;BME280;33994;50.998;5.864;2023-08-07T02:38:45;100963.13;;;12.84;90.41
48204;BME280;33994;50.998;5.864;2023-08-07T02:41:51;100956.13;;;12.85;90.56
48204;BME280;33994;50.998;5.864;2023-08-07T02:44:55;100958.75;;;12.85;90.46
48204;BME280;33994;50.998;5.864;2023-08-07T02:47:59;100965.72;;;12.87;90.61
48204;BME280;33994;50.998;5.864;2023-08-07T02:51:03;100965.69;;;12.89;90.88
48204;BME280;33994;50.998;5.864;2023-08-07T02:54:09;100963.09;;;12.87;91.32
48204;BME280;33994;50.998;5.864;2023-08-07T02:57:13;100961.38;;;12.86;91.87
48204;BME280;33994;50.998;5.864;2023-08-07T03:00:17;100962.28;;;12.84;92.19
48204;BME280;33994;50.998;5.864;2023-08-07T03:03:22;100957.19;;;12.78;92.40
48204;BME280;33994;50.998;5.864;2023-08-07T03:06:26;100969.50;;;12.74;92.59
48204;BME280;33994;50.998;5.864;2023-08-07T03:09:29;100969.47;;;12.76;92.87
48204;BME280;33994;50.998;5.864;2023-08-07T03:12:35;100965.22;;;12.70;92.84
48204;BME280;33994;50.998;5.864;2023-08-07T03:15:38;100965.22;;;12.70;93.16
48204;BME280;33994;50.998;5.864;2023-08-07T03:18:42;100966.09;;;12.69;93.04
48204;BME280;33994;50.998;5.864;2023-08-07T03:21:46;100966.09;;;12.71;93.44
48204;BME280;33994;50.998;5.864;2023-08-07T03:24:50;100957.34;;;12.70;92.95
48204;BME280;33994;50.998;5.864;2023-08-07T03:27:55;100950.41;;;12.68;92.88
48204;BME280;33994;50.998;5.864;2023-08-07T03:30:59;100957.41;;;12.67;92.47
48204;BME280;33994;50.998;5.864;2023-08-07T03:34:02;100958.31;;;12.66;92.53
48204;BME280;33994;50.998;5.864;2023-08-07T03:37:05;100960.94;;;12.66;92.55
48204;BME280;33994;50.998;5.864;2023-08-07T03:40:11;100961.81;;;12.67;92.60
48204;BME280;33994;50.998;5.864;2023-08-07T03:43:15;100960.97;;;12.64;92.76
48204;BME280;33994;50.998;5.864;2023-08-07T03:46:19;100950.53;;;12.61;92.91
48204;BME280;33994;50.998;5.864;2023-08-07T03:49:22;100961.13;;;12.57;92.95
48204;BME280;33994;50.998;5.864;2023-08-07T03:52:25;100955.84;;;12.58;93.29
48204;BME280;33994;50.998;5.864;2023-08-07T03:55:29;100964.59;;;12.57;93.01
48204;BME280;33994;50.998;5.864;2023-08-07T03:58:34;100957.59;;;12.58;92.90
48204;BME280;33994;50.998;5.864;2023-08-07T04:01:36;100972.47;;;12.59;92.43
48204;BME280;33994;50.998;5.864;2023-08-07T04:04:42;100963.75;;;12.57;92.57
48204;BME280;33994;50.998;5.864;2023-08-07T04:07:46;100961.97;;;12.59;92.41
48204;BME280;33994;50.998;5.864;2023-08-07T04:10:58;100961.97;;;12.59;91.91
48204;BME280;33994;50.998;5.864;2023-08-07T04:14:04;100950.47;;;12.64;91.57
48204;BME280;33994;50.998;5.864;2023-08-07T04:17:08;100965.28;;;12.67;91.31
48204;BME280;33994;50.998;5.864;2023-08-07T04:20:11;100961.81;;;12.65;91.13
48204;BME280;33994;50.998;5.864;2023-08-07T04:23:16;100961.88;;;12.62;90.96
48204;BME280;33994;50.998;5.864;2023-08-07T04:26:19;100974.13;;;12.63;90.46
48204;BME280;33994;50.998;5.864;2023-08-07T04:29:24;100968.03;;;12.61;90.40
48204;BME280;33994;50.998;5.864;2023-08-07T04:32:29;100979.38;;;12.63;90.10
48204;BME280;33994;50.998;5.864;2023-08-07T04:35:32;100980.16;;;12.67;89.74
48204;BME280;33994;50.998;5.864;2023-08-07T04:38:37;100979.28;;;12.68;89.30
48204;BME280;33994;50.998;5.864;2023-08-07T04:41:40;100978.41;;;12.67;88.98
48204;BME280;33994;50.998;5.864;2023-08-07T04:44:51;100982.75;;;12.68;89.05
48204;BME280;33994;50.998;5.864;2023-08-07T04:47:55;100984.47;;;12.69;89.18
48204;BME280;33994;50.998;5.864;2023-08-07T04:50:58;100980.03;;;12.73;89.04
48204;BME280;33994;50.998;5.864;2023-08-07T04:54:02;100985.28;;;12.73;88.72
48204;BME280;33994;50.998;5.864;2023-08-07T04:57:05;100977.50;;;12.68;88.78
48204;BME280;33994;50.998;5.864;2023-08-07T05:00:11;100986.28;;;12.67;88.41
48204;BME280;33994;50.998;5.864;2023-08-07T05:03:15;100986.28;;;12.67;88.57
48204;BME280;33994;50.998;5.864;2023-08-07T05:06:18;100982.75;;;12.68;88.46
48204;BME280;33994;50.998;5.864;2023-08-07T05:09:23;100982.75;;;12.68;88.19
48204;BME280;33994;50.998;5.864;2023-08-07T05:12:26;100977.59;;;12.63;87.89
48204;BME280;33994;50.998;5.864;2023-08-07T05:15:32;100991.66;;;12.61;87.84
48204;BME280;33994;50.998;5.864;2023-08-07T05:18:37;100993.44;;;12.59;87.75
48204;BME280;33994;50.998;5.864;2023-08-07T05:21:40;101001.34;;;12.57;87.82
48204;BME280;33994;50.998;5.864;2023-08-07T05:24:43;101010.00;;;12.61;88.00
48204;BME280;33994;50.998;5.864;2023-08-07T05:27:47;101013.44;;;12.66;87.75
48204;BME280;33994;50.998;5.864;2023-08-07T05:30:53;101013.38;;;12.68;87.61
48204;BME280;33994;50.998;5.864;2023-08-07T05:33:56;101026.47;;;12.69;87.53
48204;BME280;33994;50.998;5.864;2023-08-07T05:37:00;101013.34;;;12.69;87.43
48204;BME280;33994;50.998;5.864;2023-08-07T05:40:05;101030.84;;;12.70;87.46
48204;BME280;33994;50.998;5.864;2023-08-07T05:43:09;101026.53;;;12.66;87.11
48204;BME280;33994;50.998;5.864;2023-08-07T05:46:14;101029.16;;;12.66;87.17
48204;BME280;33994;50.998;5.864;2023-08-07T05:49:17;101038.75;;;12.67;87.23
48204;BME280;33994;50.998;5.864;2023-08-07T05:52:21;101037.81;;;12.70;87.35
48204;BME280;33994;50.998;5.864;2023-08-07T05:55:25;101040.44;;;12.71;87.66
48204;BME280;33994;50.998;5.864;2023-08-07T05:58:29;101034.28;;;12.72;87.71
48204;BME280;33994;50.998;5.864;2023-08-07T06:01:33;101038.63;;;12.73;87.87
48204;BME280;33994;50.998;5.864;2023-08-07T06:04:37;101044.66;;;12.77;87.68
48204;BME280;33994;50.998;5.864;2023-08-07T06:07:40;101039.41;;;12.78;87.54
48204;BME280;33994;50.998;5.864;2023-08-07T06:10:44;101035.13;;;12.74;87.37
48204;BME280;33994;50.998;5.864;2023-08-07T06:13:48;101043.88;;;12.73;87.46
48204;BME280;33994;50.998;5.864;2023-08-07T06:16:54;101038.63;;;12.73;87.63
48204;BME280;33994;50.998;5.864;2023-08-07T06:19:59;101044.72;;;12.75;87.26
48204;BME280;33994;50.998;5.864;2023-08-07T06:23:03;101055.13;;;12.80;87.17
48204;BME280;33994;50.998;5.864;2023-08-07T06:26:07;101055.84;;;12.86;87.04
48204;BME280;33994;50.998;5.864;2023-08-07T06:29:14;101048.81;;;12.88;86.86
48204;BME280;33994;50.998;5.864;2023-08-07T06:32:19;101051.44;;;12.88;87.02
48204;BME280;33994;50.998;5.864;2023-08-07T06:35:23;101057.53;;;12.90;87.08
48204;BME280;33994;50.998;5.864;2023-08-07T06:38:27;101054.84;;;12.92;87.13
48204;BME280;33994;50.998;5.864;2023-08-07T06:41:31;101053.94;;;12.95;87.03
48204;BME280;33994;50.998;5.864;2023-08-07T06:44:36;101066.09;;;12.99;86.88
48204;BME280;33994;50.998;5.864;2023-08-07T06:47:46;101064.22;;;13.04;86.85
48204;BME280;33994;50.998;5.864;2023-08-07T06:50:50;101053.53;;;13.13;86.59
48204;BME280;33994;50.998;5.864;2023-08-07T06:53:54;101044.63;;;13.20;86.33
48204;BME280;33994;50.998;5.864;2023-08-07T06:56:58;101056.81;;;13.24;86.18
48204;BME280;33994;50.998;5.864;2023-08-07T07:00:02;101061.03;;;13.30;85.90
48204;BME280;33994;50.998;5.864;2023-08-07T07:03:08;101065.25;;;13.38;85.78
48204;BME280;33994;50.998;5.864;2023-08-07T07:06:12;101069.44;;;13.46;85.22
48204;BME280;33994;50.998;5.864;2023-08-07T07:09:17;101065.63;;;13.60;85.24
48204;BME280;33994;50.998;5.864;2023-08-07T07:12:21;101069.63;;;13.77;84.45
48204;BME280;33994;50.998;5.864;2023-08-07T07:15:24;101081.88;;;13.78;84.23
48204;BME280;33994;50.998;5.864;2023-08-07T07:18:29;101084.50;;;13.76;84.13
48204;BME280;33994;50.998;5.864;2023-08-07T07:21:34;101094.88;;;13.82;83.87
48204;BME280;33994;50.998;5.864;2023-08-07T07:24:37;101083.34;;;13.88;83.88
48204;BME280;33994;50.998;5.864;2023-08-07T07:27:41;101084.97;;;13.94;83.81
48204;BME280;33994;50.998;5.864;2023-08-07T07:30:44;101092.69;;;14.01;83.23
48204;BME280;33994;50.998;5.864;2023-08-07T07:33:49;101095.16;;;14.07;83.13
48204;BME280;33994;50.998;5.864;2023-08-07T07:36:54;101094.00;;;14.18;83.18
48204;BME280;33994;50.998;5.864;2023-08-07T07:39:57;101091.09;;;14.28;82.75
48204;BME280;33994;50.998;5.864;2023-08-07T07:43:01;101100.53;;;14.37;82.58
48204;BME280;33994;50.998;5.864;2023-08-07T07:46:04;101107.31;;;14.46;82.34
48204;BME280;33994;50.998;5.864;2023-08-07T07:49:09;101105.28;;;14.55;81.97
48204;BME280;33994;50.998;5.864;2023-08-07T07:52:13;101104.13;;;14.67;81.40
48204;BME280;33994;50.998;5.864;2023-08-07T07:55:18;101102.25;;;14.72;80.74
48204;BME280;33994;50.998;5.864;2023-08-07T07:58:21;101115.16;;;14.81;80.56
48204;BME280;33994;50.998;5.864;2023-08-07T08:01:25;101113.09;;;14.93;80.17
48204;BME280;33994;50.998;5.864;2023-08-07T08:04:30;101118.22;;;14.97;79.91
48204;BME280;33994;50.998;5.864;2023-08-07T08:07:34;101121.47;;;15.05;79.50
48204;BME280;33994;50.998;5.864;2023-08-07T08:10:37;101125.53;;;15.17;78.79
48204;BME280;33994;50.998;5.864;2023-08-07T08:13:41;101120.09;;;15.23;78.01
48204;BME280;33994;50.998;5.864;2023-08-07T08:16:46;101126.78;;;15.35;77.69
48204;BME280;33994;50.998;5.864;2023-08-07T08:19:50;101125.59;;;15.45;77.22
48204;BME280;33994;50.998;5.864;2023-08-07T08:22:54;101131.53;;;15.52;76.96
48204;BME280;33994;50.998;5.864;2023-08-07T08:25:58;101133.97;;;15.58;76.06
48204;BME280;33994;50.998;5.864;2023-08-07T08:29:01;101146.16;;;15.62;75.60
48204;BME280;33994;50.998;5.864;2023-08-07T08:32:06;101142.38;;;15.71;74.74
48204;BME280;33994;50.998;5.864;2023-08-07T08:35:12;101152.81;;;15.75;73.36
48204;BME280;33994;50.998;5.864;2023-08-07T08:38:16;101160.59;;;15.80;73.84
48204;BME280;33994;50.998;5.864;2023-08-07T08:41:21;101156.94;;;15.84;72.63
48204;BME280;33994;50.998;5.864;2023-08-07T08:44:25;101148.34;;;15.77;72.78
48204;BME280;33994;50.998;5.864;2023-08-07T08:47:30;101160.72;;;15.75;72.19
48204;BME280;33994;50.998;5.864;2023-08-07T08:50:38;101155.25;;;15.81;72.33
48204;BME280;33994;50.998;5.864;2023-08-07T08:53:44;101151.44;;;15.90;72.03
48204;BME280;33994;50.998;5.864;2023-08-07T08:56:48;101156.38;;;16.01;72.26
48204;BME280;33994;50.998;5.864;2023-08-07T08:59:54;101157.31;;;16.00;71.57
48204;BME280;33994;50.998;5.864;2023-08-07T09:02:59;101163.59;;;15.96;71.50
48204;BME280;33994;50.998;5.864;2023-08-07T09:06:04;101168.09;;;15.92;72.02
48204;BME280;33994;50.998;5.864;2023-08-07T09:09:08;101165.41;;;15.94;72.48
48204;BME280;33994;50.998;5.864;2023-08-07T09:12:19;101164.16;;;16.05;73.08
48204;BME280;33994;50.998;5.864;2023-08-07T09:15:25;101171.72;;;16.16;72.93
48204;BME280;33994;50.998;5.864;2023-08-07T09:18:28;101173.09;;;16.28;72.77
48204;BME280;33994;50.998;5.864;2023-08-07T09:21:33;101171.13;;;16.35;72.06
48204;BME280;33994;50.998;5.864;2023-08-07T09:24:36;101165.56;;;16.44;71.85
48204;BME280;33994;50.998;5.864;2023-08-07T09:27:42;101175.03;;;16.49;70.84
48204;BME280;33994;50.998;5.864;2023-08-07T09:30:46;101170.94;;;16.41;70.18
48204;BME280;33994;50.998;5.864;2023-08-07T09:33:50;101170.56;;;16.25;69.17
48204;BME280;33994;50.998;5.864;2023-08-07T09:36:56;101174.31;;;16.18;69.24
48204;BME280;33994;50.998;5.864;2023-08-07T09:40:00;101186.44;;;16.23;69.85
48204;BME280;33994;50.998;5.864;2023-08-07T09:43:03;101186.34;;;16.26;70.39
48204;BME280;33994;50.998;5.864;2023-08-07T09:46:07;101197.72;;;16.28;70.32
48204;BME280;33994;50.998;5.864;2023-08-07T09:49:11;101181.78;;;16.32;69.81
48204;BME280;33994;50.998;5.864;2023-08-07T09:52:16;101193.06;;;16.37;68.27
48204;BME280;33994;50.998;5.864;2023-08-07T09:55:22;101181.50;;;16.39;68.44
48204;BME280;33994;50.998;5.864;2023-08-07T09:58:25;101185.69;;;16.46;67.89
48204;BME280;33994;50.998;5.864;2023-08-07T10:01:28;101190.94;;;16.48;67.46
48204;BME280;33994;50.998;5.864;2023-08-07T10:04:32;101187.56;;;16.43;66.74
48204;BME280;33994;50.998;5.864;2023-08-07T10:07:40;101186.00;;;16.37;66.75
48204;BME280;33994;50.998;5.864;2023-08-07T10:10:46;101192.13;;;16.38;67.38
48204;BME280;33994;50.998;5.864;2023-08-07T10:13:50;101195.47;;;16.43;67.14
48204;BME280;33994;50.998;5.864;2023-08-07T10:16:53;101190.00;;;16.49;66.43
48204;BME280;33994;50.998;5.864;2023-08-07T10:19:57;101197.00;;;16.50;65.26
48204;BME280;33994;50.998;5.864;2023-08-07T10:23:07;101185.91;;;16.65;64.76
48204;BME280;33994;50.998;5.864;2023-08-07T10:26:13;101185.72;;;16.71;64.28
48204;BME280;33994;50.998;5.864;2023-08-07T10:29:18;101199.88;;;16.69;63.62
48204;BME280;33994;50.998;5.864;2023-08-07T10:32:24;101197.06;;;16.75;62.05
48204;BME280;33994;50.998;5.864;2023-08-07T10:35:31;101198.44;;;16.87;61.00
48204;BME280;33994;50.998;5.864;2023-08-07T10:38:36;101206.72;;;17.01;60.94
48204;BME280;33994;50.998;5.864;2023-08-07T10:41:44;101200.63;;;16.99;60.04
48204;BME280;33994;50.998;5.864;2023-08-07T10:44:48;101194.47;;;16.98;60.26
48204;BME280;33994;50.998;5.864;2023-08-07T10:48:05;101199.41;;;17.08;60.88
48204;BME280;33994;50.998;5.864;2023-08-07T10:51:09;101196.59;;;17.12;60.69
48204;BME280;33994;50.998;5.864;2023-08-07T10:54:19;101198.41;;;17.12;60.73
48204;BME280;33994;50.998;5.864;2023-08-07T10:57:22;101204.31;;;17.18;61.18
48204;BME280;33994;50.998;5.864;2023-08-07T11:00:26;101203.94;;;17.29;61.48
48204;BME280;33994;50.998;5.864;2023-08-07T11:03:35;101200.38;;;17.30;60.43
48204;BME280;33994;50.998;5.864;2023-08-07T11:06:39;101202.97;;;17.32;61.63
48204;BME280;33994;50.998;5.864;2023-08-07T11:09:44;101201.13;;;17.34;61.78
48204;BME280;33994;50.998;5.864;2023-08-07T11:12:48;101204.44;;;17.39;62.08
48204;BME280;33994;50.998;5.864;2023-08-07T11:15:52;101202.50;;;17.44;61.91
48204;BME280;33994;50.998;5.864;2023-08-07T11:18:55;101210.19;;;17.50;62.30
48204;BME280;33994;50.998;5.864;2023-08-07T11:22:00;101213.53;;;17.55;62.64
48204;BME280;33994;50.998;5.864;2023-08-07T11:25:07;101216.75;;;17.63;63.19
48204;BME280;33994;50.998;5.864;2023-08-07T11:28:13;101221.88;;;17.68;63.16
48204;BME280;33994;50.998;5.864;2023-08-07T11:31:19;101217.44;;;17.68;63.77
48204;BME280;33994;50.998;5.864;2023-08-07T11:34:22;101225.44;;;17.67;63.45
48204;BME280;33994;50.998;5.864;2023-08-07T11:37:25;101215.81;;;17.64;63.04
48204;BME280;33994;50.998;5.864;2023-08-07T11:40:32;101209.63;;;17.65;63.31
48204;BME280;33994;50.998;5.864;2023-08-07T11:43:37;101220.00;;;17.71;63.67
48204;BME280;33994;50.998;5.864;2023-08-07T11:46:40;101221.00;;;17.67;63.73
48204;BME280;33994;50.998;5.864;2023-08-07T11:49:44;101217.69;;;17.62;64.45
48204;BME280;33994;50.998;5.864;2023-08-07T11:52:48;101219.16;;;17.69;64.30
48204;BME280;33994;50.998;5.864;2023-08-07T11:55:55;101216.88;;;17.84;62.59
48204;BME280;33994;50.998;5.864;2023-08-07T11:58:59;101218.47;;;17.88;62.13
48204;BME280;33994;50.998;5.864;2023-08-07T12:02:09;101216.75;;;17.87;62.06
48204;BME280;33994;50.998;5.864;2023-08-07T12:05:13;101215.59;;;17.94;62.95
48204;BME280;33994;50.998;5.864;2023-08-07T12:08:17;101218.25;;;17.94;63.18
48204;BME280;33994;50.998;5.864;2023-08-07T12:11:22;101211.09;;;17.96;61.33
48204;BME280;33994;50.998;5.864;2023-08-07T12:14:29;101203.97;;;17.98;60.17
48204;BME280;33994;50.998;5.864;2023-08-07T12:17:33;101218.00;;;18.00;60.46
48204;BME280;33994;50.998;5.864;2023-08-07T12:20:36;101211.72;;;18.03;59.96
48204;BME280;33994;50.998;5.864;2023-08-07T12:23:40;101212.47;;;18.06;59.44
48204;BME280;33994;50.998;5.864;2023-08-07T12:26:54;101215.50;;;17.97;57.01
48204;BME280;33994;50.998;5.864;2023-08-07T12:29:58;101214.03;;;17.88;58.05
48204;BME280;33994;50.998;5.864;2023-08-07T12:33:02;101226.69;;;17.82;58.32
48204;BME280;33994;50.998;5.864;2023-08-07T12:36:07;101227.56;;;17.81;58.49
48204;BME280;33994;50.998;5.864;2023-08-07T12:39:10;101215.38;;;17.77;59.02
48204;BME280;33994;50.998;5.864;2023-08-07T12:42:18;101215.72;;;17.67;58.64
48204;BME280;33994;50.998;5.864;2023-08-07T12:45:21;101220.25;;;17.64;58.90
48204;BME280;33994;50.998;5.864;2023-08-07T12:48:24;101225.63;;;17.62;58.99
48204;BME280;33994;50.998;5.864;2023-08-07T12:51:28;101222.38;;;17.54;59.71
48204;BME280;33994;50.998;5.864;2023-08-07T12:54:31;101225.16;;;17.51;60.32
48204;BME280;33994;50.998;5.864;2023-08-07T12:57:36;101220.28;;;17.40;60.65
48204;BME280;33994;50.998;5.864;2023-08-07T13:00:40;101223.78;;;17.41;61.36
48204;BME280;33994;50.998;5.864;2023-08-07T13:03:43;101219.13;;;17.47;61.99
48204;BME280;33994;50.998;5.864;2023-08-07T13:06:47;101215.44;;;17.51;61.58
48204;BME280;33994;50.998;5.864;2023-08-07T13:09:50;101212.50;;;17.59;61.68
48204;BME280;33994;50.998;5.864;2023-08-07T13:12:54;101208.19;;;17.57;60.28
48204;BME280;33994;50.998;5.864;2023-08-07T13:15:58;101197.31;;;17.64;59.72
48204;BME280;33994;50.998;5.864;2023-08-07T13:19:01;101204.94;;;17.73;59.28
48204;BME280;33994;50.998;5.864;2023-08-07T13:22:06;101209.25;;;17.76;56.96
48204;BME280;33994;50.998;5.864;2023-08-07T13:25:10;101208.16;;;17.82;56.46
48204;BME280;33994;50.998;5.864;2023-08-07T13:28:15;101196.25;;;17.92;55.69
48204;BME280;33994;50.998;5.864;2023-08-07T13:31:18;101208.78;;;18.10;55.84
48204;BME280;33994;50.998;5.864;2023-08-07T13:34:22;101205.88;;;18.16;54.77
48204;BME280;33994;50.998;5.864;2023-08-07T13:37:26;101197.00;;;18.17;54.40
48204;BME280;33994;50.998;5.864;2023-08-07T13:40:30;101200.22;;;18.26;53.64
48204;BME280;33994;50.998;5.864;2023-08-07T13:43:36;101198.50;;;18.24;52.48
48204;BME280;33994;50.998;5.864;2023-08-07T13:46:39;101204.72;;;18.23;52.95
48204;BME280;33994;50.998;5.864;2023-08-07T13:49:43;101200.28;;;18.24;53.36
48204;BME280;33994;50.998;5.864;2023-08-07T13:52:47;101216.09;;;18.26;53.79
48204;BME280;33994;50.998;5.864;2023-08-07T13:55:51;101217.88;;;18.25;53.89
48204;BME280;33994;50.998;5.864;2023-08-07T13:58:55;101220.44;;;18.27;54.08
48204;BME280;33994;50.998;5.864;2023-08-07T14:01:59;101216.75;;;18.31;54.44
48204;BME280;33994;50.998;5.864;2023-08-07T14:05:03;101216.50;;;18.37;54.43
48204;BME280;33994;50.998;5.864;2023-08-07T14:08:06;101206.72;;;18.39;54.41
48204;BME280;33994;50.998;5.864;2023-08-07T14:11:09;101214.59;;;18.40;54.74
48204;BME280;33994;50.998;5.864;2023-08-07T14:14:14;101223.94;;;18.49;54.16
48204;BME280;33994;50.998;5.864;2023-08-07T14:17:18;101227.31;;;18.53;53.55
48204;BME280;33994;50.998;5.864;2023-08-07T14:20:21;101230.72;;;18.56;53.53
48204;BME280;33994;50.998;5.864;2023-08-07T14:23:25;101223.78;;;18.54;53.22
48204;BME280;33994;50.998;5.864;2023-08-07T14:26:29;101225.50;;;18.55;53.25
48204;BME280;33994;50.998;5.864;2023-08-07T14:29:35;101222.88;;;18.53;53.00
48204;BME280;33994;50.998;5.864;2023-08-07T14:32:39;101220.84;;;18.60;52.80
48204;BME280;33994;50.998;5.864;2023-08-07T14:35:42;101218.19;;;18.60;52.55
48204;BME280;33994;50.998;5.864;2023-08-07T14:38:45;101219.34;;;18.54;52.39
48204;BME280;33994;50.998;5.864;2023-08-07T14:41:50;101228.06;;;18.56;52.91
48204;BME280;33994;50.998;5.864;2023-08-07T14:44:56;101219.91;;;18.62;53.55
48204;BME280;33994;50.998;5.864;2023-08-07T14:48:00;101227.84;;;18.62;53.66
48204;BME280;33994;50.998;5.864;2023-08-07T14:51:03;101231.28;;;18.64;53.56
48204;BME280;33994;50.998;5.864;2023-08-07T14:54:08;101224.44;;;18.59;53.31
48204;BME280;33994;50.998;5.864;2023-08-07T14:57:12;101221.13;;;18.54;53.45
48204;BME280;33994;50.998;5.864;2023-08-07T15:00:17;101233.38;;;18.56;53.70
48204;BME280;33994;50.998;5.864;2023-08-07T15:03:20;101223.16;;;18.47;53.79
48204;BME280;33994;50.998;5.864;2023-08-07T15:06:24;101235.78;;;18.40;54.30
48204;BME280;33994;50.998;5.864;2023-08-07T15:09:28;101228.97;;;18.35;54.68
48204;BME280;33994;50.998;5.864;2023-08-07T15:12:31;101238.75;;;18.33;55.08
48204;BME280;33994;50.998;5.864;2023-08-07T15:15:37;101238.09;;;18.28;54.89
48204;BME280;33994;50.998;5.864;2023-08-07T15:18:42;101238.19;;;18.24;55.42
48204;BME280;33994;50.998;5.864;2023-08-07T15:21:45;101229.44;;;18.22;56.08
48204;BME280;33994;50.998;5.864;2023-08-07T15:24:49;101231.03;;;18.27;56.00
48204;BME280;33994;50.998;5.864;2023-08-07T15:27:53;101225.75;;;18.27;55.51
48204;BME280;33994;50.998;5.864;2023-08-07T15:31:01;101227.34;;;18.31;55.90
48204;BME280;33994;50.998;5.864;2023-08-07T15:34:04;101233.53;;;18.31;55.99
48204;BME280;33994;50.998;5.864;2023-08-07T15:37:07;101237.88;;;18.32;56.21
48204;BME280;33994;50.998;5.864;2023-08-07T15:40:11;101234.38;;;18.32;56.02
48204;BME280;33994;50.998;5.864;2023-08-07T15:43:17;101238.00;;;18.29;55.79
48204;BME280;33994;50.998;5.864;2023-08-07T15:46:22;101223.78;;;18.32;56.46
48204;BME280;33994;50.998;5.864;2023-08-07T15:49:25;101221.06;;;18.33;56.49
48204;BME280;33994;50.998;5.864;2023-08-07T15:52:29;101221.69;;;18.40;56.38
48204;BME280;33994;50.998;5.864;2023-08-07T15:55:33;101224.25;;;18.41;56.38
48204;BME280;33994;50.998;5.864;2023-08-07T15:58:37;101221.44;;;18.46;56.44
48204;BME280;33994;50.998;5.864;2023-08-07T16:01:43;101224.56;;;18.56;56.79
48204;BME280;33994;50.998;5.864;2023-08-07T16:04:46;101230.50;;;18.61;57.06